Terminal Aerodrome Forecast
Issued by NWS

Current Version | Previous Version | Text Only | Print | Product List | Glossary On
Versions: 1 2 3 4 5 6 7 8 9 10 11 12 13 14 15
000
FTUS45 KREV 242339
TAFTVL
TAF
KTVL 242339Z 2500/2524 VRB04KT P6SM FEW030
     FM250800 00000KT P6SM VCFG SCT005
     FM251600 18006KT P6SM SCT030 BKN080 OVC180=

USA.gov is the U.S. government's official web portal to all federal, state and local government web resources and services.